If you wish to contribute or participate in the discussions about articles you are invited to join SKYbrary as a registered user

 Actions

Jesus Teran Peredo International Airport

From SKYbrary Wiki

MMAS
Airport
ICAO: MMAS – IATA: AGU
Summary
Name Jesus Teran Peredo International Airport
Region South America and Caribbean
Territory Mexico MX.gif
Location Cotorina, Aguascalientes
Serving Aguascalientes
Elevation 1,862.938 m
6,112 ft
6,112 ft1,862.938 m
Type medium airport
Coordinates 21° 42' 20.01" N, 102° 19' 4.29" W
Runways
Designator Length Width Surface ROPS
4/22 1060 m3,477.69 ft
30 m98.425 ft
ASP /
17/35 3000 m9,842.52 ft
45 m147.638 ft
ASP /


METAR
Observation MMAS 180442Z 10005KT 10SM SCT040 SCT100 21/10 A3030 RMK 8/530
Station Aguascalientes, Ags.
Date/Time 18 July 2019 04:42:00
Wind direction 100°
Wind speed 05 kts
Lowest cloud amount scattered clouds
Temperature 21°C
Dew point 10°C
Humidity 49%
QNH hPa
Weather condition n/a

Lic. Jesús Terán Peredo International Airport, also known as Aguascalientes International Airport, serves Aguascalientes, the capital city of the state of Aguascalientes in Mexico.

Climatology

Semi-arid Climate (Köppen climate classification BSh)

Maps

Terrain

Loading map...

Airport Layout

Loading map...


Accidents & Serious Incidents at or in vicinity of MMAS

None on SKYbrary